Arthurdale, WV

11:45 PM EDT on October 20, 2014 (GMT -0400)
Near Kingwood Pike | Change Station
CLOSE
Current Station
Personal Weather Station
Location: Morgantown, WV
Elevation: 1496 ft
Nearby Weather Stations

Elev 1496 ft 39.57 °N, 79.92 °W | Updated 46 seconds ago

Overcast
Overcast
52.4 °F
Feels Like 52.4 °F
N
4.2
Wind Variable Wind from SSW
Gusts 6.0 mph

Today
High -- | Low -- °F
--% Chance of Precip.
Yesterday
High -- | Low -- °F
Precip. -- in
7:34 AM 6:33 PM
Waning Crescent, 7% visible
Pressure 29.92 in
Visibility 10.0 miles
Clouds Mostly Cloudy 6000 ft
Overcast 7000 ft
Dew Point 46 °F
Humidity 80%
Rainfall 0.02 in
Snow Depth Not available.
UV 0 out of 12
Pollen 1.10 out of 12
Air Quality Not available.
Flu Activity Sporadic
METAR KMGW 210253Z 19003KT 10SM BKN060 OVC070 12/08 A2992 RMK AO2 RAE0155B18E27 SLP131 P0000 60001 T01220078 58004

More Conditions Fewer Conditions

Pressure 29.92 in
Visibility 10.0 miles
Clouds Mostly Cloudy 6000 ft
Overcast 7000 ft
Dew Point 46 °F
Humidity 80%
Rainfall 0.02 in
Snow Depth Not available.
UV 0 out of 12
Pollen 1.10 out of 12
Air Quality Not available.
Flu Activity Sporadic
METAR KMGW 210253Z 19003KT 10SM BKN060 OVC070 12/08 A2992 RMK AO2 RAE0155B18E27 SLP131 P0000 60001 T01220078 58004

More Conditions Fewer Conditions

10-Day Weather Forecast

Almanac

Astronomy

Oct. 20, 2014 Rise Set
Actual Time 7:34 AM EDT 6:33 PM EDT
Civil Twilight 7:07 AM EDT 7:00 PM EDT
Nautical Twilight 6:35 AM EDT 7:31 PM EDT
Astronomical Twilight 6:04 AM EDT 8:02 PM EDT
Moon 4:21 AM EDT (10/20) 4:54 PM EDT (10/20)
Length of Visible Light 11h 53m
Length of Day
10h 58m
Tomorrow will be 2m 26s shorter.
Waning Crescent, 7% of the Moon is Illuminated
Today
Waning Crescent
Oct 23
New
Oct 30
First Quarter
Nov 6
Full
Nov 14
Last Quarter

Today's Extremes

State Highs State Lows

Community

WunderPhotos

Upload Photos

1,763,594 photos uploaded!

Nearby

Snow Depth

Station Depth Elevation
No new snow has been reported.

Earthquake Activity

City Distance Mag. Time & Date
No recent earthquake activity has been reported nearby.
Minimum magnitude displayed is 2.5.

Coastal Water Temperatures

Place Temperature
No Stations Reporting

Nearby Weather Stations